AirNav   Air Wisconsin Up To $57,000 Bonus
 
 338 users online  

CA84 Torrey Pines Gliderport
San Diego, California, USA

GOING TO SAN DIEGO?


FAA INFORMATION EFFECTIVE 18 JULY 2019

Location

FAA Identifier: CA84
Lat/Long: 32-53-23.0000N / 117-14-49.0000W
32-53.383333N / 117-14.816667W
32.8897222 / -117.2469444
(estimated)
Elevation: 372 ft. / 113 m (estimated)
Variation: 13E (1985)
From city: 11 miles NW of SAN DIEGO, CA
Time zone: UTC -7 (UTC -8 during Standard Time)
Zip code: 92037

Gliderport Operations

Gliderport use: Private use. Permission required prior to landing
Activation date: 11/1961
Control tower: no
ARTCC: LOS ANGELES CENTER
FSS: SAN DIEGO FLIGHT SERVICE STATION
Attendance: UNATNDD
Wind indicator: no
Segmented circle: no

Gliderport Communications

WX ASOS at MYF (7 nm SE): 126.9 (858-576-4337)
WX ASOS at SAN (10 nm S): PHONE 619-296-8934
WX AWOS-3P at SEE (14 nm E): 125.45 (619-449-1228)
WX ASOS at CRQ (14 nm N): PHONE 760-930-0864
WX ASOS at RNM (19 nm NE): 132.025 (760-789-0736)

Nearby radio navigation aids

VOR radial/distance  VOR name  Freq  Var
MZBr335/6.5MISSION BAY VORTAC117.8015E
PGYr307/21.5POGGI VORTAC109.8014E
OCNr143/22.7OCEANSIDE VORTAC115.3015E
TIJr311/25.7TIJUANA VOR/DME116.5014E
JLIr231/36.5JULIAN VORTAC114.0015E

Gliderport Services

Airframe service: NONE
Powerplant service: NONE

Runway Information

Runway 9/27

Dimensions: 1500 x 30 ft. / 457 x 9 m
Surface: asphalt
RUNWAY 9  RUNWAY 27
Traffic pattern: leftleft
Obstructions: nonetrees, 100 ft. from runway

Gliderport Ownership and Management from official FAA records

Ownership: Publicly-owned
Owner: CITY OF SAN DIEGO
Manager: JIM FROST
4740 HARBINSON AVE
LA MESA, CA 91941
Phone 619-461-9614
WORK PHONE 619-535-9505 EXT 1585

Additional Remarks

GLIDER PORT IS LEASED FM CITY TO THE ASSOCD GLIDER CLUB OF SOUTHERN CALIF FOR STUDENT TRAINING & RIDGE SOARING.
ALL ACFT ARE TRAILERED GLIDERS.
ROLLING RWY .6 PERCENT GRADIENT.
EXTENSIVE HANG GLIDER OPERATIONS ON WEEKENDS AND WEEKDAYS.
FOR CD CTC LOS ANGELES ARTCC AT 661-575-2079.

Instrument Procedures

There are no published instrument procedures at CA84.

Some nearby airports with instrument procedures:

KNKX - Miramar MCAS (Joe Foss Field) Airport (5 nm E)
KMYF - Montgomery-Gibbs Executive Airport (7 nm SE)
KSAN - San Diego International Airport (10 nm S)
KNZY - North Island Naval Air Station (Halsey Field) (12 nm S)
KSEE - Gillespie Field Airport (14 nm E)
KCRQ - Mc Clellan-Palomar Airport (14 nm N)
KRNM - Ramona Airport (19 nm NE)
 
Loc | Ops | Rwys | IFR | FBO | Links
Com | Nav | Svcs | Stats | Notes
Area around CA84 (Torrey Pines Gliderport)
 
Road maps at: MapQuest Bing Google
 
Aerial photo
WARNING: Photo may not be current or correct
Aerial photo of CA84 (Torrey Pines Gliderport)
Photo by Doug Fronius
Photo taken 13-Mar-2004
from a 1942 Schweizer TG-2 sailplane.

Do you have a better or more recent aerial photo of Torrey Pines Gliderport that you would like to share? If so, please send us your photo.

 
Sectional chart

 
Airport distance calculator
Flying to Torrey Pines Gliderport? Find the distance to fly.

From to CA84

Sunrise and sunset
Times for 23-Jul-2019
 Local
(UTC-7)
 Zulu
(UTC)
Morning civil twilight05:3012:30
Sunrise05:5812:58
Sunset19:5302:53
Evening civil twilight20:2103:21

Current date and time
Zulu (UTC)  23-Jul-2019 08:04:26
Local (UTC-7)  23-Jul-2019 01:04:26
 
METAR
KNKX 
6nm E 
230755Z 00000KT 10SM OVC120 22/17 A2998 RMK AO2 SLP144 T02220172 403110206
KMYF 
7nm SE 
230753Z AUTO 00000KT 10SM CLR 21/17 A2998 RMK AO2 SLP148 T02110172 402830183
KSAN 
10nm S 
230751Z 29003KT 10SM FEW010 BKN170 BKN230 21/18 A2999 RMK AO2 SLP154 T02110183 402560194
KNZY 
11nm S 
230652Z 32003KT 10SM FEW012 SCT060 BKN160 BKN200 21/17 A2998 RMK AO2 SLP152 T02060172
KCRQ 
15nm N 
230753Z AUTO 27003KT 8SM CLR 22/18 A2997 RMK AO2 SLP144 T02170183 402500200
KSEE 
15nm E 
230755Z AUTO 00000KT 10SM CLR 23/17 A2996 RMK AO2
KRNM 
19nm NE 
230753Z AUTO 00000KT 10SM CLR 23/16 A3001 RMK AO2 SLP142 T02280161 403440167 $
TAF
KNKX 
6nm E 
2303/2403 VRB05KT 9999 SCT070 SCT170 QNH2992INS BECMG 2309/2311 VRB05KT 9999 BKN010 OVC120 QNH2994INS TEMPO 2309/2315 8000 BR OVC009 FM231630 27007KT 9999 SCT015 BKN120 QNH2996INS T19/2310Z T31/2322Z
KSAN 
10nm S 
230520Z 2306/2412 VRB05KT P6SM FEW012 BKN150 FM230900 VRB04KT 5SM HZ BKN010 FM231600 VRB04KT P6SM SCT012 SCT150 FM232000 29009KT P6SM FEW012 SCT150 FM240300 VRB04KT P6SM SCT010 SCT100 FM241000 VRB04KT P6SM BKN010
KNZY 
11nm S 
2223/2323 28009KT 9999 FEW012 FEW060 SCT180 SCT250 QNH2990INS TEMPO 2223/2301 SCT050 BKN160 BKN250 FM230300 VRB06KT 9999 FEW010 FEW060 SCT160 SCT250 QNH2991INS FM231100 VRB05KT 9999 SCT010 BKN050 BKN180 QNH2992INS TEMPO 2313/2319 BKN010 FM231900 29010KT 9999 FEW010 SCT060 BKN180 QNH2990INS T18/2313Z T24/2321Z COR 2308 FS30022
KCRQ 
15nm N 
230520Z 2306/2406 VRB04KT P6SM SCT010 FM230800 VRB04KT 5SM HZ BKN007 FM231600 VRB04KT P6SM SCT010 BKN150 FM232000 25007KT P6SM SCT150 FM240200 VRB04KT P6SM SCT007
NOTAMs
Click for the latest NOTAMs
NOTAMs are issued by the DoD/FAA and will open in a separate window not controlled by AirNav.

 

 
 

Would you like to see your business listed on this page?

 If your business provides an interesting product or service to pilots, flight crews, aircraft, or users of the Torrey Pines Gliderport, you should consider listing it here.  To start the listing process, click on the button below
 
Add a business
 

Other Pages about Torrey Pines Gliderport

www.agcsc.org/torrey_pines_info.html
 
Update a link
 
Copyright © AirNav, LLC. All rights reserved. Privacy Policy  Contact